sensor_id;sensor_type;location;lat;lon;timestamp;P1;durP1;ratioP1;P2;durP2;ratioP2
78960;SDS011;68362;45.970;12.646;2023-03-11T00:00:59;8.32;;;6.20;;
78960;SDS011;68362;45.970;12.646;2023-03-11T00:02:01;11.68;;;5.43;;
78960;SDS011;68362;45.970;12.646;2023-03-11T00:03:03;12.68;;;5.80;;
78960;SDS011;68362;45.970;12.646;2023-03-11T00:04:06;10.80;;;5.78;;
78960;SDS011;68362;45.970;12.646;2023-03-11T00:05:10;11.73;;;5.75;;
78960;SDS011;68362;45.970;12.646;2023-03-11T00:06:14;10.43;;;5.57;;
78960;SDS011;68362;45.970;12.646;2023-03-11T00:07:16;13.02;;;6.03;;
78960;SDS011;68362;45.970;12.646;2023-03-11T00:08:18;11.85;;;5.78;;
78960;SDS011;68362;45.970;12.646;2023-03-11T00:09:21;9.57;;;5.32;;
78960;SDS011;68362;45.970;12.646;2023-03-11T00:10:24;13.10;;;6.05;;
78960;SDS011;68362;45.970;12.646;2023-03-11T00:11:31;11.55;;;6.07;;
78960;SDS011;68362;45.970;12.646;2023-03-11T00:12:32;14.35;;;5.72;;
78960;SDS011;68362;45.970;12.646;2023-03-11T00:13:34;12.93;;;6.13;;
78960;SDS011;68362;45.970;12.646;2023-03-11T00:14:37;9.32;;;5.40;;
78960;SDS011;68362;45.970;12.646;2023-03-11T00:15:39;6.97;;;4.93;;
78960;SDS011;68362;45.970;12.646;2023-03-11T00:17:43;10.45;;;5.13;;
78960;SDS011;68362;45.970;12.646;2023-03-11T00:18:45;10.73;;;6.50;;
78960;SDS011;68362;45.970;12.646;2023-03-11T00:19:50;8.48;;;4.45;;
78960;SDS011;68362;45.970;12.646;2023-03-11T00:20:53;11.85;;;4.93;;
78960;SDS011;68362;45.970;12.646;2023-03-11T00:21:55;12.25;;;5.15;;
78960;SDS011;68362;45.970;12.646;2023-03-11T00:22:59;9.75;;;4.75;;
78960;SDS011;68362;45.970;12.646;2023-03-11T00:24:01;13.65;;;6.25;;
78960;SDS011;68362;45.970;12.646;2023-03-11T00:25:03;20.20;;;5.93;;
78960;SDS011;68362;45.970;12.646;2023-03-11T00:26:05;12.10;;;5.60;;
78960;SDS011;68362;45.970;12.646;2023-03-11T00:27:07;8.90;;;5.50;;
78960;SDS011;68362;45.970;12.646;2023-03-11T00:28:09;8.18;;;5.13;;
78960;SDS011;68362;45.970;12.646;2023-03-11T00:29:11;11.52;;;5.88;;
78960;SDS011;68362;45.970;12.646;2023-03-11T00:30:13;11.70;;;5.93;;
78960;SDS011;68362;45.970;12.646;2023-03-11T00:31:16;10.30;;;5.63;;
78960;SDS011;68362;45.970;12.646;2023-03-11T00:32:18;10.48;;;5.82;;
78960;SDS011;68362;45.970;12.646;2023-03-11T00:33:19;9.80;;;5.82;;
78960;SDS011;68362;45.970;12.646;2023-03-11T00:34:21;9.35;;;5.68;;
78960;SDS011;68362;45.970;12.646;2023-03-11T00:35:24;8.80;;;5.43;;
78960;SDS011;68362;45.970;12.646;2023-03-11T00:36:29;7.82;;;5.25;;
78960;SDS011;68362;45.970;12.646;2023-03-11T00:37:32;10.98;;;5.47;;
78960;SDS011;68362;45.970;12.646;2023-03-11T00:38:33;11.20;;;6.30;;
78960;SDS011;68362;45.970;12.646;2023-03-11T00:39:35;11.70;;;5.85;;
78960;SDS011;68362;45.970;12.646;2023-03-11T00:40:37;8.73;;;5.35;;
78960;SDS011;68362;45.970;12.646;2023-03-11T00:41:39;11.75;;;5.45;;
78960;SDS011;68362;45.970;12.646;2023-03-11T00:42:41;13.52;;;5.70;;
78960;SDS011;68362;45.970;12.646;2023-03-11T00:43:42;10.57;;;5.80;;
78960;SDS011;68362;45.970;12.646;2023-03-11T00:44:44;9.15;;;5.00;;
78960;SDS011;68362;45.970;12.646;2023-03-11T00:45:46;8.35;;;4.72;;
78960;SDS011;68362;45.970;12.646;2023-03-11T00:46:48;12.30;;;5.90;;
78960;SDS011;68362;45.970;12.646;2023-03-11T00:47:50;10.88;;;5.38;;
78960;SDS011;68362;45.970;12.646;2023-03-11T00:49:54;9.90;;;5.88;;
78960;SDS011;68362;45.970;12.646;2023-03-11T00:50:56;12.90;;;5.38;;
78960;SDS011;68362;45.970;12.646;2023-03-11T00:51:57;11.35;;;6.32;;
78960;SDS011;68362;45.970;12.646;2023-03-11T00:52:59;10.27;;;5.93;;
78960;SDS011;68362;45.970;12.646;2023-03-11T00:54:01;10.10;;;5.60;;
78960;SDS011;68362;45.970;12.646;2023-03-11T00:55:03;8.93;;;5.18;;
78960;SDS011;68362;45.970;12.646;2023-03-11T00:57:08;16.88;;;6.28;;
78960;SDS011;68362;45.970;12.646;2023-03-11T00:58:10;13.43;;;6.60;;
78960;SDS011;68362;45.970;12.646;2023-03-11T01:00:15;11.15;;;5.95;;
78960;SDS011;68362;45.970;12.646;2023-03-11T01:01:18;12.38;;;6.15;;
78960;SDS011;68362;45.970;12.646;2023-03-11T01:02:20;10.18;;;5.25;;
78960;SDS011;68362;45.970;12.646;2023-03-11T01:03:22;10.77;;;5.70;;
78960;SDS011;68362;45.970;12.646;2023-03-11T01:04:24;15.35;;;6.00;;
78960;SDS011;68362;45.970;12.646;2023-03-11T01:05:28;8.48;;;5.95;;
78960;SDS011;68362;45.970;12.646;2023-03-11T01:06:31;10.50;;;5.43;;
78960;SDS011;68362;45.970;12.646;2023-03-11T01:07:45;11.93;;;5.00;;
78960;SDS011;68362;45.970;12.646;2023-03-11T01:08:47;9.82;;;5.25;;
78960;SDS011;68362;45.970;12.646;2023-03-11T01:09:49;9.25;;;5.45;;
78960;SDS011;68362;45.970;12.646;2023-03-11T01:10:50;9.13;;;5.10;;
78960;SDS011;68362;45.970;12.646;2023-03-11T01:11:52;12.18;;;5.63;;
78960;SDS011;68362;45.970;12.646;2023-03-11T01:12:54;8.50;;;5.03;;
78960;SDS011;68362;45.970;12.646;2023-03-11T01:13:56;13.57;;;6.20;;
78960;SDS011;68362;45.970;12.646;2023-03-11T01:14:58;10.32;;;5.97;;
78960;SDS011;68362;45.970;12.646;2023-03-11T01:15:59;10.57;;;6.60;;
78960;SDS011;68362;45.970;12.646;2023-03-11T01:17:01;10.13;;;5.70;;
78960;SDS011;68362;45.970;12.646;2023-03-11T01:18:03;9.10;;;5.85;;
78960;SDS011;68362;45.970;12.646;2023-03-11T01:19:06;10.98;;;5.85;;
78960;SDS011;68362;45.970;12.646;2023-03-11T01:20:08;12.45;;;5.65;;
78960;SDS011;68362;45.970;12.646;2023-03-11T01:21:11;12.65;;;6.15;;
78960;SDS011;68362;45.970;12.646;2023-03-11T01:22:12;11.77;;;5.95;;
78960;SDS011;68362;45.970;12.646;2023-03-11T01:23:15;10.15;;;6.10;;
78960;SDS011;68362;45.970;12.646;2023-03-11T01:24:17;8.10;;;5.47;;
78960;SDS011;68362;45.970;12.646;2023-03-11T01:25:19;8.02;;;5.28;;
78960;SDS011;68362;45.970;12.646;2023-03-11T01:26:23;8.30;;;5.68;;
78960;SDS011;68362;45.970;12.646;2023-03-11T01:27:24;7.75;;;5.45;;
78960;SDS011;68362;45.970;12.646;2023-03-11T01:28:26;9.88;;;5.03;;
78960;SDS011;68362;45.970;12.646;2023-03-11T01:29:28;12.25;;;5.28;;
78960;SDS011;68362;45.970;12.646;2023-03-11T01:30:29;8.45;;;5.30;;
78960;SDS011;68362;45.970;12.646;2023-03-11T01:31:31;11.93;;;5.78;;
78960;SDS011;68362;45.970;12.646;2023-03-11T01:32:33;11.32;;;5.15;;
78960;SDS011;68362;45.970;12.646;2023-03-11T01:33:35;10.05;;;6.18;;
78960;SDS011;68362;45.970;12.646;2023-03-11T01:34:36;13.13;;;6.05;;
78960;SDS011;68362;45.970;12.646;2023-03-11T01:35:38;12.85;;;6.43;;
78960;SDS011;68362;45.970;12.646;2023-03-11T01:36:40;12.40;;;6.68;;
78960;SDS011;68362;45.970;12.646;2023-03-11T01:37:42;10.43;;;5.95;;
78960;SDS011;68362;45.970;12.646;2023-03-11T01:38:44;8.88;;;5.60;;
78960;SDS011;68362;45.970;12.646;2023-03-11T01:39:45;12.38;;;5.97;;
78960;SDS011;68362;45.970;12.646;2023-03-11T01:40:48;12.10;;;6.68;;
78960;SDS011;68362;45.970;12.646;2023-03-11T01:41:51;12.93;;;6.72;;
78960;SDS011;68362;45.970;12.646;2023-03-11T01:42:53;12.32;;;6.78;;
78960;SDS011;68362;45.970;12.646;2023-03-11T01:43:54;13.13;;;6.47;;
78960;SDS011;68362;45.970;12.646;2023-03-11T01:44:56;14.23;;;7.07;;
78960;SDS011;68362;45.970;12.646;2023-03-11T01:48:04;11.18;;;7.07;;
78960;SDS011;68362;45.970;12.646;2023-03-11T01:49:08;14.80;;;7.40;;
78960;SDS011;68362;45.970;12.646;2023-03-11T01:50:12;12.25;;;6.93;;
78960;SDS011;68362;45.970;12.646;2023-03-11T01:51:14;13.68;;;6.60;;
78960;SDS011;68362;45.970;12.646;2023-03-11T01:52:19;8.38;;;5.85;;
78960;SDS011;68362;45.970;12.646;2023-03-11T01:53:21;12.18;;;6.70;;
78960;SDS011;68362;45.970;12.646;2023-03-11T01:54:32;10.90;;;5.43;;
78960;SDS011;68362;45.970;12.646;2023-03-11T01:55:37;15.88;;;7.45;;
78960;SDS011;68362;45.970;12.646;2023-03-11T01:56:39;14.15;;;7.68;;
78960;SDS011;68362;45.970;12.646;2023-03-11T01:58:45;11.10;;;6.68;;
78960;SDS011;68362;45.970;12.646;2023-03-11T01:59:51;10.68;;;6.57;;
78960;SDS011;68362;45.970;12.646;2023-03-11T02:00:56;13.30;;;6.95;;
78960;SDS011;68362;45.970;12.646;2023-03-11T02:02:01;10.30;;;7.13;;
78960;SDS011;68362;45.970;12.646;2023-03-11T02:04:15;11.25;;;6.68;;
78960;SDS011;68362;45.970;12.646;2023-03-11T02:05:18;11.02;;;6.55;;
78960;SDS011;68362;45.970;12.646;2023-03-11T02:06:22;12.20;;;7.07;;
78960;SDS011;68362;45.970;12.646;2023-03-11T02:07:24;15.77;;;7.97;;
78960;SDS011;68362;45.970;12.646;2023-03-11T02:08:26;12.63;;;8.18;;
78960;SDS011;68362;45.970;12.646;2023-03-11T02:09:30;13.82;;;8.30;;
78960;SDS011;68362;45.970;12.646;2023-03-11T02:10:31;12.60;;;7.38;;
78960;SDS011;68362;45.970;12.646;2023-03-11T02:11:33;15.30;;;8.77;;
78960;SDS011;68362;45.970;12.646;2023-03-11T02:12:35;13.63;;;7.82;;
78960;SDS011;68362;45.970;12.646;2023-03-11T02:13:38;13.20;;;7.07;;
78960;SDS011;68362;45.970;12.646;2023-03-11T02:14:42;13.70;;;7.20;;
78960;SDS011;68362;45.970;12.646;2023-03-11T02:15:47;13.85;;;7.45;;
78960;SDS011;68362;45.970;12.646;2023-03-11T02:16:49;16.40;;;9.40;;
78960;SDS011;68362;45.970;12.646;2023-03-11T02:17:50;15.50;;;8.77;;
78960;SDS011;68362;45.970;12.646;2023-03-11T02:18:52;13.60;;;8.10;;
78960;SDS011;68362;45.970;12.646;2023-03-11T02:22:13;15.77;;;9.13;;
78960;SDS011;68362;45.970;12.646;2023-03-11T02:23:16;16.25;;;9.27;;
78960;SDS011;68362;45.970;12.646;2023-03-11T02:25:29;19.75;;;8.63;;
78960;SDS011;68362;45.970;12.646;2023-03-11T02:26:53;11.13;;;7.63;;
78960;SDS011;68362;45.970;12.646;2023-03-11T02:27:56;20.05;;;8.95;;
78960;SDS011;68362;45.970;12.646;2023-03-11T02:29:00;14.52;;;7.70;;
78960;SDS011;68362;45.970;12.646;2023-03-11T02:30:04;17.35;;;9.57;;
78960;SDS011;68362;45.970;12.646;2023-03-11T02:31:07;17.63;;;8.45;;
78960;SDS011;68362;45.970;12.646;2023-03-11T02:32:08;13.68;;;8.05;;
78960;SDS011;68362;45.970;12.646;2023-03-11T02:33:11;14.57;;;8.30;;
78960;SDS011;68362;45.970;12.646;2023-03-11T02:34:23;13.88;;;8.15;;
78960;SDS011;68362;45.970;12.646;2023-03-11T02:35:28;14.20;;;8.85;;
78960;SDS011;68362;45.970;12.646;2023-03-11T02:36:33;13.38;;;8.40;;
78960;SDS011;68362;45.970;12.646;2023-03-11T02:37:36;15.35;;;8.40;;
78960;SDS011;68362;45.970;12.646;2023-03-11T02:38:45;13.60;;;8.13;;
78960;SDS011;68362;45.970;12.646;2023-03-11T02:39:47;15.98;;;7.68;;
78960;SDS011;68362;45.970;12.646;2023-03-11T02:41:54;12.82;;;7.78;;
78960;SDS011;68362;45.970;12.646;2023-03-11T02:42:57;13.50;;;7.38;;
78960;SDS011;68362;45.970;12.646;2023-03-11T02:44:02;15.63;;;7.97;;
78960;SDS011;68362;45.970;12.646;2023-03-11T02:45:08;12.52;;;8.02;;
78960;SDS011;68362;45.970;12.646;2023-03-11T02:46:12;16.77;;;9.85;;
78960;SDS011;68362;45.970;12.646;2023-03-11T02:48:17;11.60;;;7.43;;
78960;SDS011;68362;45.970;12.646;2023-03-11T02:49:19;17.13;;;8.68;;
78960;SDS011;68362;45.970;12.646;2023-03-11T02:50:22;16.75;;;7.90;;
78960;SDS011;68362;45.970;12.646;2023-03-11T02:52:27;12.63;;;7.00;;
78960;SDS011;68362;45.970;12.646;2023-03-11T02:53:30;15.45;;;7.97;;
78960;SDS011;68362;45.970;12.646;2023-03-11T02:54:36;13.38;;;7.35;;
78960;SDS011;68362;45.970;12.646;2023-03-11T02:55:38;17.48;;;8.15;;
78960;SDS011;68362;45.970;12.646;2023-03-11T02:56:39;14.55;;;6.90;;
78960;SDS011;68362;45.970;12.646;2023-03-11T02:57:41;11.48;;;6.93;;
78960;SDS011;68362;45.970;12.646;2023-03-11T02:58:44;13.98;;;7.07;;
78960;SDS011;68362;45.970;12.646;2023-03-11T02:59:46;10.98;;;7.88;;
78960;SDS011;68362;45.970;12.646;2023-03-11T03:00:47;20.15;;;8.15;;
78960;SDS011;68362;45.970;12.646;2023-03-11T03:01:49;12.80;;;7.43;;
78960;SDS011;68362;45.970;12.646;2023-03-11T03:02:50;12.85;;;6.97;;
78960;SDS011;68362;45.970;12.646;2023-03-11T03:03:52;12.30;;;7.65;;
78960;SDS011;68362;45.970;12.646;2023-03-11T03:04:54;14.75;;;6.72;;
78960;SDS011;68362;45.970;12.646;2023-03-11T03:05:56;11.95;;;7.70;;
78960;SDS011;68362;45.970;12.646;2023-03-11T03:06:57;10.55;;;7.18;;
78960;SDS011;68362;45.970;12.646;2023-03-11T03:07:59;14.35;;;8.70;;
78960;SDS011;68362;45.970;12.646;2023-03-11T03:09:02;14.15;;;8.13;;
78960;SDS011;68362;45.970;12.646;2023-03-11T03:10:05;13.40;;;8.32;;
78960;SDS011;68362;45.970;12.646;2023-03-11T03:11:07;11.98;;;8.15;;
78960;SDS011;68362;45.970;12.646;2023-03-11T03:12:08;16.35;;;7.95;;
78960;SDS011;68362;45.970;12.646;2023-03-11T03:13:10;11.55;;;7.82;;
78960;SDS011;68362;45.970;12.646;2023-03-11T03:14:12;10.32;;;6.97;;
78960;SDS011;68362;45.970;12.646;2023-03-11T03:15:14;15.32;;;8.40;;
78960;SDS011;68362;45.970;12.646;2023-03-11T03:16:16;12.07;;;7.40;;
78960;SDS011;68362;45.970;12.646;2023-03-11T03:17:18;12.07;;;8.20;;
78960;SDS011;68362;45.970;12.646;2023-03-11T03:18:20;14.23;;;7.75;;
78960;SDS011;68362;45.970;12.646;2023-03-11T03:19:21;10.00;;;6.28;;
78960;SDS011;68362;45.970;12.646;2023-03-11T03:20:23;9.80;;;7.40;;
78960;SDS011;68362;45.970;12.646;2023-03-11T03:21:26;11.05;;;7.53;;
78960;SDS011;68362;45.970;12.646;2023-03-11T03:22:28;14.30;;;7.82;;
78960;SDS011;68362;45.970;12.646;2023-03-11T03:23:30;14.27;;;8.48;;
78960;SDS011;68362;45.970;12.646;2023-03-11T03:24:35;15.70;;;8.05;;
78960;SDS011;68362;45.970;12.646;2023-03-11T03:25:37;11.73;;;6.63;;
78960;SDS011;68362;45.970;12.646;2023-03-11T03:26:38;11.77;;;7.80;;
78960;SDS011;68362;45.970;12.646;2023-03-11T03:27:40;11.43;;;6.93;;
78960;SDS011;68362;45.970;12.646;2023-03-11T03:28:41;10.13;;;6.05;;
78960;SDS011;68362;45.970;12.646;2023-03-11T03:29:43;11.45;;;7.65;;
78960;SDS011;68362;45.970;12.646;2023-03-11T03:30:45;11.88;;;6.93;;
78960;SDS011;68362;45.970;12.646;2023-03-11T03:31:46;13.65;;;7.63;;
78960;SDS011;68362;45.970;12.646;2023-03-11T03:32:48;16.25;;;7.50;;
78960;SDS011;68362;45.970;12.646;2023-03-11T03:33:50;12.98;;;7.60;;
78960;SDS011;68362;45.970;12.646;2023-03-11T03:34:52;11.63;;;7.10;;
78960;SDS011;68362;45.970;12.646;2023-03-11T03:35:58;12.43;;;7.25;;
78960;SDS011;68362;45.970;12.646;2023-03-11T03:37:00;11.82;;;7.68;;
78960;SDS011;68362;45.970;12.646;2023-03-11T03:38:02;10.57;;;6.90;;
78960;SDS011;68362;45.970;12.646;2023-03-11T03:39:04;13.18;;;7.30;;
78960;SDS011;68362;45.970;12.646;2023-03-11T03:40:06;11.85;;;6.78;;
78960;SDS011;68362;45.970;12.646;2023-03-11T03:41:08;12.32;;;7.25;;
78960;SDS011;68362;45.970;12.646;2023-03-11T03:42:10;14.65;;;7.68;;
78960;SDS011;68362;45.970;12.646;2023-03-11T03:43:12;10.43;;;6.85;;
78960;SDS011;68362;45.970;12.646;2023-03-11T03:44:13;10.77;;;7.35;;
78960;SDS011;68362;45.970;12.646;2023-03-11T03:45:15;10.73;;;7.00;;
78960;SDS011;68362;45.970;12.646;2023-03-11T03:46:17;13.65;;;7.70;;
78960;SDS011;68362;45.970;12.646;2023-03-11T03:47:18;13.20;;;6.90;;
78960;SDS011;68362;45.970;12.646;2023-03-11T03:48:20;14.27;;;7.88;;
78960;SDS011;68362;45.970;12.646;2023-03-11T03:49:22;11.30;;;7.50;;
78960;SDS011;68362;45.970;12.646;2023-03-11T03:50:23;12.75;;;8.48;;
78960;SDS011;68362;45.970;12.646;2023-03-11T03:51:25;11.75;;;7.50;;
78960;SDS011;68362;45.970;12.646;2023-03-11T03:52:27;11.35;;;7.40;;
78960;SDS011;68362;45.970;12.646;2023-03-11T03:53:28;13.90;;;8.40;;
78960;SDS011;68362;45.970;12.646;2023-03-11T03:54:30;14.27;;;7.10;;
78960;SDS011;68362;45.970;12.646;2023-03-11T03:55:32;10.63;;;7.47;;
78960;SDS011;68362;45.970;12.646;2023-03-11T03:56:34;12.13;;;6.80;;
78960;SDS011;68362;45.970;12.646;2023-03-11T03:57:35;9.02;;;6.70;;
78960;SDS011;68362;45.970;12.646;2023-03-11T03:58:37;11.18;;;7.80;;
78960;SDS011;68362;45.970;12.646;2023-03-11T03:59:39;11.52;;;7.00;;
78960;SDS011;68362;45.970;12.646;2023-03-11T04:00:40;13.13;;;7.72;;
78960;SDS011;68362;45.970;12.646;2023-03-11T04:01:42;10.50;;;6.88;;
78960;SDS011;68362;45.970;12.646;2023-03-11T04:02:43;11.40;;;6.57;;
78960;SDS011;68362;45.970;12.646;2023-03-11T04:03:45;11.32;;;6.50;;
78960;SDS011;68362;45.970;12.646;2023-03-11T04:04:47;14.55;;;7.95;;
78960;SDS011;68362;45.970;12.646;2023-03-11T04:05:49;11.02;;;7.20;;
78960;SDS011;68362;45.970;12.646;2023-03-11T04:06:50;8.95;;;6.80;;
78960;SDS011;68362;45.970;12.646;2023-03-11T04:07:52;12.57;;;7.85;;
78960;SDS011;68362;45.970;12.646;2023-03-11T04:08:55;14.07;;;7.30;;
78960;SDS011;68362;45.970;12.646;2023-03-11T04:09:56;10.32;;;7.10;;
78960;SDS011;68362;45.970;12.646;2023-03-11T04:10:58;12.10;;;8.30;;
78960;SDS011;68362;45.970;12.646;2023-03-11T04:12:00;15.27;;;7.78;;
78960;SDS011;68362;45.970;12.646;2023-03-11T04:13:01;10.73;;;7.15;;
78960;SDS011;68362;45.970;12.646;2023-03-11T04:14:03;10.35;;;6.90;;
78960;SDS011;68362;45.970;12.646;2023-03-11T04:15:06;10.10;;;6.43;;
78960;SDS011;68362;45.970;12.646;2023-03-11T04:16:09;11.35;;;8.25;;
78960;SDS011;68362;45.970;12.646;2023-03-11T04:17:13;14.52;;;8.23;;
78960;SDS011;68362;45.970;12.646;2023-03-11T04:18:15;10.95;;;7.20;;
78960;SDS011;68362;45.970;12.646;2023-03-11T04:19:16;9.18;;;6.93;;
78960;SDS011;68362;45.970;12.646;2023-03-11T04:20:18;9.45;;;6.90;;
78960;SDS011;68362;45.970;12.646;2023-03-11T04:21:20;7.85;;;6.35;;
78960;SDS011;68362;45.970;12.646;2023-03-11T04:22:22;10.07;;;6.78;;
78960;SDS011;68362;45.970;12.646;2023-03-11T04:23:23;9.63;;;6.72;;
78960;SDS011;68362;45.970;12.646;2023-03-11T04:24:25;12.25;;;6.68;;
78960;SDS011;68362;45.970;12.646;2023-03-11T04:25:27;10.63;;;6.50;;
78960;SDS011;68362;45.970;12.646;2023-03-11T04:26:29;13.20;;;7.47;;
78960;SDS011;68362;45.970;12.646;2023-03-11T04:27:31;11.63;;;7.50;;
78960;SDS011;68362;45.970;12.646;2023-03-11T04:28:32;13.55;;;7.82;;
78960;SDS011;68362;45.970;12.646;2023-03-11T04:29:34;12.30;;;8.07;;
78960;SDS011;68362;45.970;12.646;2023-03-11T04:30:36;12.52;;;7.43;;
78960;SDS011;68362;45.970;12.646;2023-03-11T04:31:39;9.23;;;7.63;;
78960;SDS011;68362;45.970;12.646;2023-03-11T04:32:41;10.68;;;7.13;;
78960;SDS011;68362;45.970;12.646;2023-03-11T04:33:43;9.70;;;6.88;;
78960;SDS011;68362;45.970;12.646;2023-03-11T04:34:45;13.52;;;7.68;;
78960;SDS011;68362;45.970;12.646;2023-03-11T04:35:46;13.77;;;8.23;;
78960;SDS011;68362;45.970;12.646;2023-03-11T04:36:50;12.30;;;7.43;;
78960;SDS011;68362;45.970;12.646;2023-03-11T04:37:55;13.35;;;7.75;;
78960;SDS011;68362;45.970;12.646;2023-03-11T04:38:57;12.50;;;7.57;;
78960;SDS011;68362;45.970;12.646;2023-03-11T04:39:58;14.55;;;7.22;;
78960;SDS011;68362;45.970;12.646;2023-03-11T04:41:00;13.80;;;7.72;;
78960;SDS011;68362;45.970;12.646;2023-03-11T04:43:04;11.00;;;7.00;;
78960;SDS011;68362;45.970;12.646;2023-03-11T04:44:06;13.90;;;7.68;;
78960;SDS011;68362;45.970;12.646;2023-03-11T04:45:08;13.90;;;7.68;;
78960;SDS011;68362;45.970;12.646;2023-03-11T04:46:11;14.90;;;8.02;;
78960;SDS011;68362;45.970;12.646;2023-03-11T04:47:13;11.35;;;7.50;;
78960;SDS011;68362;45.970;12.646;2023-03-11T04:48:15;13.57;;;7.95;;
78960;SDS011;68362;45.970;12.646;2023-03-11T04:49:16;16.20;;;8.45;;
78960;SDS011;68362;45.970;12.646;2023-03-11T04:50:18;13.23;;;8.18;;
78960;SDS011;68362;45.970;12.646;2023-03-11T04:51:20;13.45;;;7.65;;
78960;SDS011;68362;45.970;12.646;2023-03-11T04:52:21;16.10;;;8.55;;
78960;SDS011;68362;45.970;12.646;2023-03-11T04:53:23;15.50;;;8.85;;
78960;SDS011;68362;45.970;12.646;2023-03-11T04:54:25;13.18;;;8.43;;
78960;SDS011;68362;45.970;12.646;2023-03-11T04:55:27;14.95;;;8.60;;
78960;SDS011;68362;45.970;12.646;2023-03-11T04:56:28;14.48;;;9.07;;
78960;SDS011;68362;45.970;12.646;2023-03-11T04:57:30;12.23;;;8.65;;
78960;SDS011;68362;45.970;12.646;2023-03-11T04:58:32;14.68;;;7.80;;
78960;SDS011;68362;45.970;12.646;2023-03-11T04:59:33;12.55;;;7.93;;
78960;SDS011;68362;45.970;12.646;2023-03-11T05:00:35;11.88;;;8.63;;
78960;SDS011;68362;45.970;12.646;2023-03-11T05:01:36;12.45;;;8.00;;
78960;SDS011;68362;45.970;12.646;2023-03-11T05:02:38;13.68;;;8.10;;
78960;SDS011;68362;45.970;12.646;2023-03-11T05:03:40;10.38;;;7.38;;
78960;SDS011;68362;45.970;12.646;2023-03-11T05:04:42;15.63;;;8.10;;
78960;SDS011;68362;45.970;12.646;2023-03-11T05:05:45;13.95;;;8.05;;
78960;SDS011;68362;45.970;12.646;2023-03-11T05:06:47;16.88;;;8.68;;
78960;SDS011;68362;45.970;12.646;2023-03-11T05:07:51;12.98;;;8.90;;
78960;SDS011;68362;45.970;12.646;2023-03-11T05:08:53;15.88;;;8.30;;
78960;SDS011;68362;45.970;12.646;2023-03-11T05:09:54;13.00;;;8.18;;
78960;SDS011;68362;45.970;12.646;2023-03-11T05:10:56;13.80;;;8.50;;
78960;SDS011;68362;45.970;12.646;2023-03-11T05:11:58;15.27;;;8.75;;
78960;SDS011;68362;45.970;12.646;2023-03-11T05:13:00;14.73;;;8.98;;
78960;SDS011;68362;45.970;12.646;2023-03-11T05:14:01;15.02;;;8.43;;
78960;SDS011;68362;45.970;12.646;2023-03-11T05:15:03;16.38;;;8.75;;
78960;SDS011;68362;45.970;12.646;2023-03-11T05:16:05;17.17;;;8.10;;
78960;SDS011;68362;45.970;12.646;2023-03-11T05:17:07;16.80;;;7.72;;
78960;SDS011;68362;45.970;12.646;2023-03-11T05:18:10;10.82;;;7.68;;
78960;SDS011;68362;45.970;12.646;2023-03-11T05:19:11;11.27;;;7.70;;
78960;SDS011;68362;45.970;12.646;2023-03-11T05:20:31;14.68;;;7.85;;
78960;SDS011;68362;45.970;12.646;2023-03-11T05:21:33;13.18;;;6.85;;
78960;SDS011;68362;45.970;12.646;2023-03-11T05:22:35;12.57;;;7.70;;
78960;SDS011;68362;45.970;12.646;2023-03-11T05:23:37;13.00;;;8.00;;
78960;SDS011;68362;45.970;12.646;2023-03-11T05:24:39;11.20;;;7.20;;
78960;SDS011;68362;45.970;12.646;2023-03-11T05:25:41;14.98;;;7.82;;
78960;SDS011;68362;45.970;12.646;2023-03-11T05:26:43;11.63;;;7.20;;
78960;SDS011;68362;45.970;12.646;2023-03-11T05:27:46;11.95;;;6.50;;
78960;SDS011;68362;45.970;12.646;2023-03-11T05:28:48;19.38;;;7.55;;
78960;SDS011;68362;45.970;12.646;2023-03-11T05:29:50;13.05;;;6.90;;
78960;SDS011;68362;45.970;12.646;2023-03-11T05:30:51;20.02;;;8.85;;
78960;SDS011;68362;45.970;12.646;2023-03-11T05:31:53;13.32;;;7.03;;
78960;SDS011;68362;45.970;12.646;2023-03-11T05:32:55;10.55;;;6.50;;
78960;SDS011;68362;45.970;12.646;2023-03-11T05:33:57;13.85;;;6.72;;
78960;SDS011;68362;45.970;12.646;2023-03-11T05:34:58;14.35;;;6.72;;
78960;SDS011;68362;45.970;12.646;2023-03-11T05:36:04;10.30;;;6.60;;
78960;SDS011;68362;45.970;12.646;2023-03-11T05:37:07;9.25;;;6.07;;
78960;SDS011;68362;45.970;12.646;2023-03-11T05:38:09;10.63;;;6.05;;
78960;SDS011;68362;45.970;12.646;2023-03-11T05:39:10;14.52;;;6.50;;
78960;SDS011;68362;45.970;12.646;2023-03-11T05:40:12;13.05;;;5.90;;
78960;SDS011;68362;45.970;12.646;2023-03-11T05:41:14;12.95;;;6.82;;
78960;SDS011;68362;45.970;12.646;2023-03-11T05:42:15;13.10;;;6.72;;
78960;SDS011;68362;45.970;12.646;2023-03-11T05:44:20;14.30;;;6.18;;
78960;SDS011;68362;45.970;12.646;2023-03-11T05:45:22;14.13;;;6.93;;
78960;SDS011;68362;45.970;12.646;2023-03-11T05:46:23;9.65;;;6.13;;
78960;SDS011;68362;45.970;12.646;2023-03-11T05:47:25;14.88;;;6.60;;
78960;SDS011;68362;45.970;12.646;2023-03-11T05:48:27;13.45;;;6.78;;
78960;SDS011;68362;45.970;12.646;2023-03-11T05:49:29;9.10;;;5.57;;
78960;SDS011;68362;45.970;12.646;2023-03-11T05:50:30;13.23;;;5.32;;
78960;SDS011;68362;45.970;12.646;2023-03-11T05:51:32;15.43;;;6.93;;
78960;SDS011;68362;45.970;12.646;2023-03-11T05:52:34;13.43;;;7.38;;
78960;SDS011;68362;45.970;12.646;2023-03-11T05:53:35;8.35;;;6.38;;
78960;SDS011;68362;45.970;12.646;2023-03-11T05:54:38;11.63;;;6.20;;
78960;SDS011;68362;45.970;12.646;2023-03-11T05:55:39;12.15;;;6.07;;
78960;SDS011;68362;45.970;12.646;2023-03-11T05:56:41;13.13;;;6.53;;
78960;SDS011;68362;45.970;12.646;2023-03-11T05:57:45;13.57;;;6.43;;
78960;SDS011;68362;45.970;12.646;2023-03-11T05:58:46;7.70;;;4.97;;
78960;SDS011;68362;45.970;12.646;2023-03-11T05:59:48;11.15;;;5.38;;
78960;SDS011;68362;45.970;12.646;2023-03-11T06:00:50;15.10;;;5.97;;
78960;SDS011;68362;45.970;12.646;2023-03-11T06:01:51;19.58;;;6.80;;
78960;SDS011;68362;45.970;12.646;2023-03-11T06:02:53;13.65;;;6.80;;
78960;SDS011;68362;45.970;12.646;2023-03-11T06:03:55;13.00;;;7.05;;
78960;SDS011;68362;45.970;12.646;2023-03-11T06:04:56;14.32;;;7.03;;
78960;SDS011;68362;45.970;12.646;2023-03-11T06:05:58;13.85;;;6.22;;
78960;SDS011;68362;45.970;12.646;2023-03-11T06:07:00;13.25;;;5.97;;
78960;SDS011;68362;45.970;12.646;2023-03-11T06:08:01;11.13;;;6.68;;
78960;SDS011;68362;45.970;12.646;2023-03-11T06:09:03;13.13;;;6.03;;
78960;SDS011;68362;45.970;12.646;2023-03-11T06:10:05;14.70;;;6.10;;
78960;SDS011;68362;45.970;12.646;2023-03-11T06:11:08;12.75;;;5.88;;
78960;SDS011;68362;45.970;12.646;2023-03-11T06:12:11;9.73;;;5.78;;
78960;SDS011;68362;45.970;12.646;2023-03-11T06:13:12;13.23;;;5.43;;
78960;SDS011;68362;45.970;12.646;2023-03-11T06:14:14;15.55;;;6.22;;
78960;SDS011;68362;45.970;12.646;2023-03-11T06:15:16;9.23;;;5.68;;
78960;SDS011;68362;45.970;12.646;2023-03-11T06:16:17;12.50;;;6.60;;
78960;SDS011;68362;45.970;12.646;2023-03-11T06:17:19;14.60;;;5.22;;
78960;SDS011;68362;45.970;12.646;2023-03-11T06:18:21;11.77;;;5.50;;
78960;SDS011;68362;45.970;12.646;2023-03-11T06:19:23;10.65;;;5.68;;
78960;SDS011;68362;45.970;12.646;2023-03-11T06:20:25;9.43;;;5.18;;
78960;SDS011;68362;45.970;12.646;2023-03-11T06:21:28;19.85;;;6.38;;
78960;SDS011;68362;45.970;12.646;2023-03-11T06:22:30;14.30;;;5.80;;
78960;SDS011;68362;45.970;12.646;2023-03-11T06:23:32;94.57;;;14.35;;